FMSD

Tôlanaro Airport

Tôlanaro, Comoros
METAR FMSD 170700Z 06019KT 9999 FEW020 26/21 Q1016
Observed Flight Rules
Dec-17 @ 07:00 UTC (an hour ago) Visual Flight Rules
Wind Visibility Clouds
60° at 19 knots 10,000+ meters
  • Few at 2,000' AGL
Temperatures Readings
Current 26°C / 79°F
Dewpoint 21°C / 70°F
Humidity 74%
Altimeter 30" Hg
Pressure 1016 hPa
Elevation 9
METAR FMSD 170700Z 06019KT 9999 FEW020 26/21 Q1016
Observed Flight Rules
Dec-17 @ 07:00 UTC
(an hour ago)
VFR
Wind Visibility
60° at 19 knots 10,000+ meters
Clouds
  • Few at 2,000' AGL
Temperature Dewpoint
26°C / 79°F 21°C / 70°F
Humidity Altimeter Pressure
74% 30" Hg 1016 hPa